CMA CGM Homere — MQBL6 — position and weather

sailwx.info

Track history (hours):
 
Tides and Currents Weather Stations Pressure Air Temp Water Temp Dewpoint Dewpoint Depression Visibility Wind Speed Wind Dir Waves Ship Positions

CMA CGM Homere

Last reported at 2016-Dec-04 06:12 UTC. Time now 2016-Dec-07 20:20 UTC.
Position N 35°41' E 014°59'.

Length 170 m; draft 10.1 m.

Type: Ship (hazmat cat A). MMSI: 235052314.

Date/timePositionNaut miles runAvg speedWind from/ knotsBaromVisibWave heightAir tempDewpointWater temp
2016-Dec-04 06:12N 35°41' E 014°59'1117.6
2016-Dec-04 05:34N 35°45' E 014°46'1212.2
2016-Dec-04 04:33N 35°49' E 014°32'0 0.0
2016-Dec-03 10:22N 35°49' E 014°33'1 1.0
2016-Dec-03 09:33N 35°49' E 014°34'4 3.7
2016-Dec-03 08:21N 35°52' E 014°38'7 8.7
2016-Dec-03 07:33N 35°58' E 014°34'10 9.8
2016-Dec-03 06:33N 36°05' E 014°25'10 9.8
2016-Dec-03 05:32N 36°10' E 014°15'10 9.8
2016-Dec-03 04:33N 36°14' E 014°04'10 9.7
2016-Dec-03 03:33N 36°19' E 013°53'10 9.8
2016-Dec-03 02:33N 36°23' E 013°42'  
2016-Nov-30 04:32N 35°59' W 005°15'23413.4
2016-Nov-29 11:06N 37°29' W 009°46'4015.8
2016-Nov-29 08:33N 38°08' W 009°57'1616.0
2016-Nov-29 07:33N 38°24' W 010°02'1615.7
2016-Nov-29 06:33N 38°39' W 010°07'1615.8
2016-Nov-29 05:33N 38°55' W 010°07'1616.0
2016-Nov-29 04:33N 39°11' W 010°08'53915.4
2016-Nov-27 17:33N 47°49' W 006°42'1616.5
2016-Nov-27 16:33N 48°03' W 006°29'3115.6
2016-Nov-27 14:33N 48°31' W 006°08'2914.7
2016-Nov-27 12:34N 48°56' W 005°44'1513.1
2016-Nov-27 11:25N 49°03' W 005°24'9613.9
2016-Nov-27 04:31N 49°51' W 003°17'1313.4
2016-Nov-27 03:34N 49°57' W 002°59'1514.3
2016-Nov-27 02:32N 50°02' W 002°37'1715.7
2016-Nov-27 01:26N 50°07' W 002°11'1517.1
2016-Nov-27 00:34N 50°10' W 001°49'1717.2
2016-Nov-26 23:33N 50°15' W 001°23'4615.1
2016-Nov-26 20:30N 50°27' W 000°13'1313.2
2016-Nov-26 19:30N 50°30' E 000°07'1212.7
2016-Nov-26 18:33N 50°33' E 000°25'1413.2
2016-Nov-26 17:28N 50°39' E 000°46'1915.1
2016-Nov-26 16:11N 50°51' E 001°10'1015.9
2016-Nov-26 15:33N 50°58' E 001°22'1515.1
2016-Nov-26 14:34N 51°08' E 001°39'1413.9
2016-Nov-26 13:33N 51°19' E 001°53'1110.7
2016-Nov-26 12:34N 51°22' E 002°09'1312.5
2016-Nov-26 11:33N 51°23' E 002°29'1211.9
2016-Nov-26 10:33N 51°22' E 002°48'1313.5
2016-Nov-26 09:34N 51°24' E 003°10'1413.6
2016-Nov-26 08:33N 51°25' E 003°32'9 8.6
2016-Nov-26 07:33N 51°22' E 003°44'10 9.9
2016-Nov-26 06:33N 51°26' E 003°59'10 9.9
2016-Nov-26 05:33N 51°22' E 004°13'5 4.8
2016-Nov-26 04:33N 51°17' E 004°16'0 0.0
2016-Nov-26 03:33N 51°17' E 004°16'0 0.0
2016-Nov-26 02:21N 51°17' E 004°16'0 0.0
2016-Nov-26 01:30N 51°17' E 004°16'0 0.0
2016-Nov-26 00:24N 51°17' E 004°16'0 0.0
2016-Nov-25 23:31N 51°17' E 004°16'0 0.0
2016-Nov-25 22:33N 51°17' E 004°16'0 0.0
2016-Nov-25 21:30N 51°17' E 004°16'0 0.1
2016-Nov-25 20:33N 51°17' E 004°16'7 7.0
2016-Nov-25 19:33N 51°24' E 004°11'9 8.6
2016-Nov-25 18:34N 51°23' E 003°57'1111.3
2016-Nov-25 17:34N 51°26' E 003°40'9 9.2
2016-Nov-25 16:34N 51°25' E 003°25'10 9.9
2016-Nov-25 15:34N 51°24' E 003°09'7 6.8
2016-Nov-25 14:34N 51°29' E 003°02'1212.3
2016-Nov-25 13:34N 51°40' E 003°11'1110.7
2016-Nov-25 12:32N 51°51' E 003°16'1414.0
2016-Nov-25 11:33N 52°04' E 003°21'1413.9
2016-Nov-25 10:32N 52°18' E 003°24'1414.4
2016-Nov-25 09:33N 52°32' E 003°28'1515.3
2016-Nov-25 08:33N 52°45' E 003°42'1616.0
2016-Nov-25 07:33N 52°57' E 003°59'1616.3
2016-Nov-25 06:33N 53°07' E 004°20'3015.1
2016-Nov-25 04:32N 53°32' E 004°51'1515.1
2016-Nov-25 03:33N 53°37' E 005°14'1514.7
2016-Nov-25 02:33N 53°41' E 005°38'1515.3
2016-Nov-25 01:33N 53°46' E 006°02'6616.1
2016-Nov-24 21:26N 54°01' E 007°52'1314.5
2016-Nov-24 20:33N 54°00' E 008°13'1413.8
2016-Nov-24 19:33N 53°58' E 008°36'1010.5
2016-Nov-24 18:33N 53°50' E 008°49'1211.7
2016-Nov-24 17:33N 53°53' E 009°09'1212.2
2016-Nov-24 16:34N 53°45' E 009°24'1413.7
2016-Nov-24 15:33N 53°34' E 009°39'10 9.7
2016-Nov-24 14:33N 53°32' E 009°55'0 0.0
2016-Nov-24 13:32N 53°32' E 009°55'0 0.0
2016-Nov-24 12:32N 53°32' E 009°55'0 0.0
2016-Nov-24 11:32N 53°32' E 009°55'0 0.0
2016-Nov-24 10:29N 53°32' E 009°55'0 0.0
2016-Nov-24 09:32N 53°32' E 009°55'0 0.0
2016-Nov-24 08:29N 53°32' E 009°55'0 0.0
2016-Nov-24 07:32N 53°32' E 009°55'0 0.0
2016-Nov-24 06:29N 53°32' E 009°55'  
Track history (hours):
 
Tides and Currents Weather Stations Pressure Air Temp Water Temp Dewpoint Dewpoint Depression Visibility Wind Speed Wind Dir Waves Ship Positions

CMA CGM Homere

Last reported at 2016-Dec-04 06:12 UTC. Time now 2016-Dec-07 20:20 UTC.
Position N 35°41' E 014°59'.

Length 170 m; draft 10.1 m.

Type: Ship (hazmat cat A). MMSI: 235052314.

Date/timePositionNaut miles runAvg speedWind from/ knotsBaromVisibWave heightAir tempDewpointWater temp
2016-Dec-04 06:12N 35°41' E 014°59'1117.6
2016-Dec-04 05:34N 35°45' E 014°46'1212.2
2016-Dec-04 04:33N 35°49' E 014°32'0 0.0
2016-Dec-03 10:22N 35°49' E 014°33'1 1.0
2016-Dec-03 09:33N 35°49' E 014°34'4 3.7
2016-Dec-03 08:21N 35°52' E 014°38'7 8.7
2016-Dec-03 07:33N 35°58' E 014°34'10 9.8
2016-Dec-03 06:33N 36°05' E 014°25'10 9.8
2016-Dec-03 05:32N 36°10' E 014°15'10 9.8
2016-Dec-03 04:33N 36°14' E 014°04'10 9.7
2016-Dec-03 03:33N 36°19' E 013°53'10 9.8
2016-Dec-03 02:33N 36°23' E 013°42'  
2016-Nov-30 04:32N 35°59' W 005°15'23413.4
2016-Nov-29 11:06N 37°29' W 009°46'4015.8
2016-Nov-29 08:33N 38°08' W 009°57'1616.0
2016-Nov-29 07:33N 38°24' W 010°02'1615.7
2016-Nov-29 06:33N 38°39' W 010°07'1615.8
2016-Nov-29 05:33N 38°55' W 010°07'1616.0
2016-Nov-29 04:33N 39°11' W 010°08'53915.4
2016-Nov-27 17:33N 47°49' W 006°42'1616.5
2016-Nov-27 16:33N 48°03' W 006°29'3115.6
2016-Nov-27 14:33N 48°31' W 006°08'2914.7
2016-Nov-27 12:34N 48°56' W 005°44'1513.1
2016-Nov-27 11:25N 49°03' W 005°24'9613.9
2016-Nov-27 04:31N 49°51' W 003°17'1313.4
2016-Nov-27 03:34N 49°57' W 002°59'1514.3
2016-Nov-27 02:32N 50°02' W 002°37'1715.7
2016-Nov-27 01:26N 50°07' W 002°11'1517.1
2016-Nov-27 00:34N 50°10' W 001°49'1717.2
2016-Nov-26 23:33N 50°15' W 001°23'4615.1
2016-Nov-26 20:30N 50°27' W 000°13'1313.2
2016-Nov-26 19:30N 50°30' E 000°07'1212.7
2016-Nov-26 18:33N 50°33' E 000°25'1413.2
2016-Nov-26 17:28N 50°39' E 000°46'1915.1
2016-Nov-26 16:11N 50°51' E 001°10'1015.9
2016-Nov-26 15:33N 50°58' E 001°22'1515.1
2016-Nov-26 14:34N 51°08' E 001°39'1413.9
2016-Nov-26 13:33N 51°19' E 001°53'1110.7
2016-Nov-26 12:34N 51°22' E 002°09'1312.5
2016-Nov-26 11:33N 51°23' E 002°29'1211.9
2016-Nov-26 10:33N 51°22' E 002°48'1313.5
2016-Nov-26 09:34N 51°24' E 003°10'1413.6
2016-Nov-26 08:33N 51°25' E 003°32'9 8.6
2016-Nov-26 07:33N 51°22' E 003°44'10 9.9
2016-Nov-26 06:33N 51°26' E 003°59'10 9.9
2016-Nov-26 05:33N 51°22' E 004°13'5 4.8
2016-Nov-26 04:33N 51°17' E 004°16'0 0.0
2016-Nov-26 03:33N 51°17' E 004°16'0 0.0
2016-Nov-26 02:21N 51°17' E 004°16'0 0.0
2016-Nov-26 01:30N 51°17' E 004°16'0 0.0
2016-Nov-26 00:24N 51°17' E 004°16'0 0.0
2016-Nov-25 23:31N 51°17' E 004°16'0 0.0
2016-Nov-25 22:33N 51°17' E 004°16'0 0.0
2016-Nov-25 21:30N 51°17' E 004°16'0 0.1
2016-Nov-25 20:33N 51°17' E 004°16'7 7.0
2016-Nov-25 19:33N 51°24' E 004°11'9 8.6
2016-Nov-25 18:34N 51°23' E 003°57'1111.3
2016-Nov-25 17:34N 51°26' E 003°40'9 9.2
2016-Nov-25 16:34N 51°25' E 003°25'10 9.9
2016-Nov-25 15:34N 51°24' E 003°09'7 6.8
2016-Nov-25 14:34N 51°29' E 003°02'1212.3
2016-Nov-25 13:34N 51°40' E 003°11'1110.7
2016-Nov-25 12:32N 51°51' E 003°16'1414.0
2016-Nov-25 11:33N 52°04' E 003°21'1413.9
2016-Nov-25 10:32N 52°18' E 003°24'1414.4
2016-Nov-25 09:33N 52°32' E 003°28'1515.3
2016-Nov-25 08:33N 52°45' E 003°42'1616.0
2016-Nov-25 07:33N 52°57' E 003°59'1616.3
2016-Nov-25 06:33N 53°07' E 004°20'3015.1
2016-Nov-25 04:32N 53°32' E 004°51'1515.1
2016-Nov-25 03:33N 53°37' E 005°14'1514.7
2016-Nov-25 02:33N 53°41' E 005°38'1515.3
2016-Nov-25 01:33N 53°46' E 006°02'6616.1
2016-Nov-24 21:26N 54°01' E 007°52'1314.5
2016-Nov-24 20:33N 54°00' E 008°13'1413.8
2016-Nov-24 19:33N 53°58' E 008°36'1010.5
2016-Nov-24 18:33N 53°50' E 008°49'1211.7
2016-Nov-24 17:33N 53°53' E 009°09'1212.2
2016-Nov-24 16:34N 53°45' E 009°24'1413.7
2016-Nov-24 15:33N 53°34' E 009°39'10 9.7
2016-Nov-24 14:33N 53°32' E 009°55'0 0.0
2016-Nov-24 13:32N 53°32' E 009°55'0 0.0
2016-Nov-24 12:32N 53°32' E 009°55'0 0.0
2016-Nov-24 11:32N 53°32' E 009°55'0 0.0
2016-Nov-24 10:29N 53°32' E 009°55'0 0.0
2016-Nov-24 09:32N 53°32' E 009°55'0 0.0
2016-Nov-24 08:29N 53°32' E 009°55'0 0.0
2016-Nov-24 07:32N 53°32' E 009°55'0 0.0
2016-Nov-24 06:29N 53°32' E 009°55'  

Dump ship's entire track history